Terminal Aerodrome Forecast
Issued by NWS Wilmington, OH

Current Version | Previous Version | Graphics & Text | Print | Product List | Glossary Off
Versions: 1 2 3 4 5 6 7 8 9 10 11 12 13 14 15 16 17 18 19 20

000
FTUS41 KILN 040528
TAFDAY
TAF
KDAY 040528Z 0406/0506 22004KT P6SM SCT060 BKN150
      TEMPO 0409/0412 5SM BR
     FM041300 23006KT P6SM SCT040 BKN200
     FM041700 24008KT P6SM VCTS BKN040CB
     FM050100 VRB03KT P6SM SCT040 BKN120=

USA.gov is the U.S. government's official web portal to all federal, state and local government web resources and services.